Ningbo, China
Current Conditions -  °F | °C
As of 4:00 PM on Thursday 18 Dec 2014 (Local Time) from ZSNB Reporting Station
Clear Clear  
Wind Chill: 50°   Ceiling: Unl
Heat Index: 50°   Visibility: 6mi
Dew Point: 23°   Wind: 4mph
Humidity: 35%   Direction: 80°E
Pressure: 30.48"   Gusts: NA
Location:  29.86°N, 121.55°E
Report Text: ZSNB 180800Z 08002MPS 020V150 CAVOK 10/M05 Q1032 NOSIG
Loading
Personal Weather Stations






























Interactive Weather Map New forecast layout! Learn more

10-Day Weather Forecast

Advertisements
Track Severe Weather on mobile